Time;durP1;ratioP1;P1;durP2;ratioP2;P2;SDS_P1;SDS_P2;PMS_P1;PMS_P2;Temp;Humidity;BMP_temperature;BMP_pressure;BME280_temperature;BME280_humidity;BME280_pressure;Samples;Min_cycle;Max_cycle;Signal;HPM_P1;HPM_P2
2021/03/15 00:02:22;;;;;;;8.23;2.05;;;;;;;15.78;69.06;100753.00;5051123;28;20112;-69
2021/03/15 00:04:49;;;;;;;9.98;2.08;;;;;;;15.77;69.13;100753.00;5050056;28;20071;-69
2021/03/15 00:07:16;;;;;;;9.50;2.72;;;;;;;15.77;69.16;100740.59;5050445;28;20041;-69
2021/03/15 00:09:43;;;;;;;6.15;1.73;;;;;;;15.78;69.19;100753.00;5048920;28;20508;-69
2021/03/15 00:12:12;;;;;;;9.57;2.00;;;;;;;15.74;69.51;100743.28;5050973;28;20043;-69
2021/03/15 00:14:39;;;;;;;6.30;1.90;;;;;;;15.73;69.44;100741.50;5053312;28;20041;-69
2021/03/15 00:17:07;;;;;;;15.18;2.40;;;;;;;15.73;69.60;100738.84;5053809;28;20424;-69
2021/03/15 00:19:35;;;;;;;6.63;2.17;;;;;;;15.71;69.61;100740.63;5053792;28;20061;-69
2021/03/15 00:22:02;;;;;;;5.07;2.05;;;;;;;15.68;69.77;100730.00;5053945;28;20452;-69
2021/03/15 00:24:29;;;;;;;5.32;1.83;;;;;;;15.66;69.76;100734.44;5054284;28;20060;-69
2021/03/15 00:26:56;;;;;;;5.07;1.92;;;;;;;15.65;69.71;100735.34;5054405;28;20045;-69
2021/03/15 00:29:24;;;;;;;8.10;2.50;;;;;;;15.62;69.63;100724.69;5054170;28;20410;-69
2021/03/15 00:31:51;;;;;;;6.97;1.73;;;;;;;15.59;69.51;100724.72;5053563;28;20051;-69
2021/03/15 00:34:18;;;;;;;6.68;2.38;;;;;;;15.58;69.51;100732.72;5069404;28;20094;-69
2021/03/15 00:36:46;;;;;;;6.88;1.90;;;;;;;15.60;69.29;100731.81;5053867;28;20120;-69
2021/03/15 00:39:14;;;;;;;6.32;2.47;;;;;;;15.58;69.38;100728.28;5054419;28;20061;-69
2021/03/15 00:41:41;;;;;;;7.70;2.70;;;;;;;15.60;69.25;100734.47;5054196;28;20045;-69
2021/03/15 00:44:09;;;;;;;5.28;2.67;;;;;;;15.62;69.38;100729.16;5045485;28;20037;-68
2021/03/15 00:46:36;;;;;;;6.28;1.90;;;;;;;15.61;69.45;100724.72;5053506;28;20344;-69
2021/03/15 00:49:04;;;;;;;5.93;2.00;;;;;;;15.56;69.51;100716.75;5053727;28;20033;-69
2021/03/15 00:51:31;;;;;;;8.63;2.10;;;;;;;15.51;69.65;100708.75;5054031;28;20056;-69
2021/03/15 00:53:59;;;;;;;6.38;2.13;;;;;;;15.49;69.90;100705.22;5053472;28;20234;-69
2021/03/15 00:56:26;;;;;;;6.72;2.20;;;;;;;15.41;69.96;100712.38;5053434;28;20051;-68
2021/03/15 00:58:53;;;;;;;8.70;2.55;;;;;;;15.38;70.06;100708.84;5053866;28;20041;-69
2021/03/15 01:01:21;;;;;;;3.78;1.98;;;;;;;15.33;70.25;100703.53;5054112;28;20041;-68
2021/03/15 01:03:48;;;;;;;11.65;1.92;;;;;;;15.29;70.28;100700.91;5053000;28;20044;-69
2021/03/15 01:06:15;;;;;;;6.15;2.08;;;;;;;15.25;70.29;100701.81;5053892;28;20036;-68
2021/03/15 01:08:43;;;;;;;6.45;1.90;;;;;;;15.23;70.26;100691.16;5054094;28;20048;-69
2021/03/15 01:11:11;;;;;;;6.63;2.08;;;;;;;15.20;70.26;100695.63;5052770;28;20397;-69
2021/03/15 01:13:38;;;;;;;9.45;2.10;;;;;;;15.13;70.45;100686.78;5053949;28;20636;-68
2021/03/15 01:16:05;;;;;;;6.78;3.13;;;;;;;15.11;70.57;100685.91;5053120;28;20124;-68
2021/03/15 01:18:33;;;;;;;9.70;2.55;;;;;;;15.07;70.71;100682.38;5053792;28;20738;-68
2021/03/15 01:21:00;;;;;;;12.60;2.80;;;;;;;15.00;70.97;100683.31;5052848;28;20041;-68
2021/03/15 01:23:27;;;;;;;9.05;2.22;;;;;;;14.97;71.52;100685.97;5053116;28;20440;-68
2021/03/15 01:25:55;;;;;;;14.98;2.90;;;;;;;14.94;71.80;100683.31;5052599;28;20059;-68
2021/03/15 01:28:23;;;;;;;6.25;2.15;;;;;;;14.91;71.96;100674.47;5053757;28;20033;-68
2021/03/15 01:30:50;;;;;;;5.13;2.50;;;;;;;14.88;72.35;100678.03;5052738;28;20128;-68
2021/03/15 01:33:17;;;;;;;7.53;2.47;;;;;;;15.11;71.58;100676.16;5051882;28;20045;-69
2021/03/15 01:35:44;;;;;;;9.45;2.70;;;;;;;14.88;72.39;100671.84;5051926;28;20048;-68
2021/03/15 01:38:11;;;;;;;9.48;3.78;;;;;;;14.86;72.44;100669.16;5053501;28;20043;-68
2021/03/15 01:40:40;;;;;;;11.35;2.70;;;;;;;14.77;72.89;100672.72;5053205;28;20051;-68
2021/03/15 01:43:08;;;;;;;11.23;2.90;;;;;;;14.79;73.02;100664.75;5052539;28;20055;-68
2021/03/15 01:45:37;;;;;;;6.00;2.60;;;;;;;14.84;73.04;100664.75;5053088;28;20518;-68
2021/03/15 01:48:11;;;;;;;8.23;2.60;;;;;;;14.91;73.03;100655.84;5052415;28;20044;-68
2021/03/15 01:50:38;;;;;;;11.18;2.28;;;;;;;14.96;72.96;100659.41;5052541;28;20068;-69
2021/03/15 01:53:06;;;;;;;14.00;2.97;;;;;;;15.01;72.76;100658.50;5052197;28;20120;-68
2021/03/15 01:55:34;;;;;;;7.25;2.42;;;;;;;15.04;72.88;100657.56;5052847;28;20045;-68
2021/03/15 01:58:01;;;;;;;6.63;2.40;;;;;;;15.08;72.84;100648.72;5052157;28;20033;-68
2021/03/15 02:00:28;;;;;;;8.65;3.15;;;;;;;15.09;72.80;100634.53;5052562;28;20045;-68
2021/03/15 02:02:59;;;;;;;8.68;2.88;;;;;;;15.08;72.79;100633.66;5051862;28;20120;-68
2021/03/15 02:05:26;;;;;;;10.77;2.50;;;;;;;15.00;72.76;100624.81;5052714;28;20087;-68
2021/03/15 02:07:54;;;;;;;5.72;2.47;;;;;;;14.94;72.83;100632.81;5052055;28;20041;-68
2021/03/15 02:10:21;;;;;;;9.25;2.60;;;;;;;14.89;73.04;100631.97;5052737;28;20116;-68
2021/03/15 02:13:09;;;;;;;4.93;2.20;;;;;;;14.88;73.06;100632.84;5051713;28;20543;-68
2021/03/15 02:15:45;;;;;;;8.27;2.70;;;;;;;14.86;73.02;100629.31;5052814;28;20450;-68
2021/03/15 02:18:20;;;;;;;11.02;2.25;;;;;;;14.87;73.04;100632.84;5050935;28;20045;-68
2021/03/15 02:21:17;;;;;;;6.93;2.63;;;;;;;14.85;72.92;100634.63;5051928;28;20041;-68
2021/03/15 02:23:50;;;;;;;9.38;3.00;;;;;;;14.80;72.89;100645.28;5039259;28;20098;-68
2021/03/15 02:26:39;;;;;;;8.50;2.40;;;;;;;14.75;72.80;100647.97;5052783;28;20064;-68
2021/03/15 02:29:37;;;;;;;6.50;2.38;;;;;;;14.71;72.89;100642.63;5037613;28;20117;-68
2021/03/15 02:32:41;;;;;;;6.07;2.63;;;;;;;14.66;72.85;100640.00;5031947;28;20037;-68
2021/03/15 02:35:11;;;;;;;7.05;3.50;;;;;;;14.62;72.98;100634.72;5051232;28;20598;-68
2021/03/15 02:37:46;;;;;;;7.80;3.15;;;;;;;14.56;72.94;100632.97;5050780;28;20051;-68
2021/03/15 02:40:18;;;;;;;6.10;2.15;;;;;;;14.52;73.07;100641.81;5052119;28;20498;-68
2021/03/15 02:42:50;;;;;;;8.75;2.88;;;;;;;14.52;72.85;100641.81;5051405;28;20486;-68
2021/03/15 02:45:18;;;;;;;10.07;2.95;;;;;;;14.51;72.91;100639.16;5052044;28;20075;-68
2021/03/15 02:47:49;;;;;;;9.07;2.60;;;;;;;14.46;73.00;100636.50;5051418;28;20513;-68
2021/03/15 02:50:19;;;;;;;7.97;2.80;;;;;;;14.46;72.99;100631.19;5051662;28;20136;-68
2021/03/15 02:52:48;;;;;;;7.10;2.90;;;;;;;14.44;73.07;100640.09;5051354;28;20086;-68
2021/03/15 02:55:18;;;;;;;5.75;2.30;;;;;;;14.42;73.01;100650.69;5051480;28;20608;-68
2021/03/15 02:57:46;;;;;;;12.90;3.10;;;;;;;14.41;73.03;100640.06;5050643;28;20036;-69
2021/03/15 03:00:15;;;;;;;7.18;2.80;;;;;;;14.42;72.98;100639.19;5051433;28;20040;-68
2021/03/15 03:02:44;;;;;;;6.13;3.00;;;;;;;14.42;72.87;100639.19;5050502;28;20044;-68
2021/03/15 03:05:14;;;;;;;10.25;3.47;;;;;;;14.35;72.96;100639.16;5051502;28;20102;-68
2021/03/15 03:07:46;;;;;;;11.02;3.45;;;;;;;14.33;73.03;100629.44;5049954;28;20080;-68
2021/03/15 03:10:16;;;;;;;6.68;2.63;;;;;;;14.34;73.22;100628.53;5050029;28;20124;-68
2021/03/15 03:12:45;;;;;;;10.13;2.95;;;;;;;14.30;73.30;100617.06;5050980;28;20037;-68
2021/03/15 03:15:14;;;;;;;6.63;2.47;;;;;;;14.27;73.47;100627.66;5051125;28;20051;-67
2021/03/15 03:17:44;;;;;;;8.52;2.92;;;;;;;14.29;73.39;100622.38;5050839;28;20041;-68
2021/03/15 03:20:14;;;;;;;6.18;2.80;;;;;;;14.29;73.54;100628.56;5051057;28;20040;-67
2021/03/15 03:22:45;;;;;;;7.32;3.13;;;;;;;14.27;73.50;100625.00;5051577;28;20091;-68
2021/03/15 03:25:16;;;;;;;6.95;2.55;;;;;;;14.26;73.49;100623.25;5050983;28;20094;-68
2021/03/15 03:27:44;;;;;;;7.18;3.00;;;;;;;14.24;73.41;100626.81;5050986;28;20462;-68
2021/03/15 03:30:12;;;;;;;9.43;2.90;;;;;;;14.21;73.49;100638.31;5050759;28;20037;-68
2021/03/15 03:32:42;;;;;;;5.82;2.67;;;;;;;14.24;73.55;100640.09;5050541;28;20037;-68
2021/03/15 03:35:10;;;;;;;8.73;3.50;;;;;;;14.26;73.58;100640.94;5050813;28;20033;-68
2021/03/15 03:37:38;;;;;;;9.25;2.83;;;;;;;14.33;73.49;100643.59;5050995;28;20041;-67
2021/03/15 03:40:08;;;;;;;8.10;2.75;;;;;;;14.39;73.44;100648.03;5050194;28;20397;-67
2021/03/15 03:42:35;;;;;;;6.45;3.08;;;;;;;14.39;73.48;100660.44;5050390;28;20047;-68
2021/03/15 03:45:02;;;;;;;8.95;3.55;;;;;;;14.39;73.32;100652.47;5050118;28;20116;-68
2021/03/15 03:47:29;;;;;;;10.50;3.65;;;;;;;14.28;73.33;100658.66;5051026;28;20044;-66
2021/03/15 03:49:58;;;;;;;27.33;18.00;;;;;;;14.19;73.43;100658.66;5050172;28;20064;-68
2021/03/15 03:52:29;;;;;;;12.07;5.95;;;;;;;14.22;73.45;100658.66;5050840;28;20529;-68
2021/03/15 03:55:00;;;;;;;5.30;2.72;;;;;;;14.35;73.25;100655.09;5050601;28;20041;-67
2021/03/15 03:57:32;;;;;;;9.70;3.35;;;;;;;14.49;73.24;100659.53;5050368;28;20033;-68
2021/03/15 04:00:07;;;;;;;7.35;2.78;;;;;;;14.52;73.04;100655.09;5050561;28;20057;-68
2021/03/15 04:02:40;;;;;;;7.57;2.92;;;;;;;14.59;73.01;100648.00;5050178;28;20037;-68
2021/03/15 04:05:09;;;;;;;10.52;3.75;;;;;;;14.56;72.77;100648.03;5050143;28;20037;-68
2021/03/15 04:07:44;;;;;;;7.88;3.03;;;;;;;14.54;72.82;100655.97;5051050;28;20398;-68
2021/03/15 04:10:14;;;;;;;26.20;10.57;;;;;;;14.55;72.53;100663.06;5050429;28;20041;-68
2021/03/15 04:12:47;;;;;;;21.85;8.75;;;;;;;14.49;72.44;100651.56;5050463;28;20041;-68
2021/03/15 04:15:17;;;;;;;29.45;10.73;;;;;;;14.44;72.61;100654.22;5050140;28;20045;-67
2021/03/15 04:17:45;;;;;;;12.50;5.18;;;;;;;14.45;72.68;100660.41;5050303;28;20037;-68
2021/03/15 04:20:18;;;;;;;10.45;4.22;;;;;;;14.48;72.76;100655.13;5051062;28;20041;-67
2021/03/15 04:22:53;;;;;;;7.93;3.05;;;;;;;14.50;72.73;100648.03;5048883;28;20036;-68
2021/03/15 04:25:22;;;;;;;10.38;3.28;;;;;;;14.48;72.82;100641.84;5050900;28;20041;-68
2021/03/15 04:27:51;;;;;;;16.60;6.32;;;;;;;14.46;72.80;100639.16;5050303;28;20124;-68
2021/03/15 04:30:20;;;;;;;13.20;3.28;;;;;;;14.45;72.88;100639.16;5050751;28;20033;-67
2021/03/15 04:32:52;;;;;;;5.65;3.60;;;;;;;14.45;72.85;100636.50;5034113;28;20033;-68
2021/03/15 04:35:22;;;;;;;8.45;3.15;;;;;;;14.43;72.98;100635.66;5050776;28;20102;-68
2021/03/15 04:37:50;;;;;;;8.48;3.65;;;;;;;14.43;72.91;100641.84;5049776;28;20041;-68
2021/03/15 04:40:19;;;;;;;6.13;3.28;;;;;;;14.38;72.94;100648.03;5050187;28;20041;-67
2021/03/15 04:42:47;;;;;;;6.72;2.88;;;;;;;14.32;72.94;100640.94;5050198;28;20049;-68
2021/03/15 04:45:18;;;;;;;6.15;3.22;;;;;;;14.31;72.90;100639.16;5050573;28;20108;-68
2021/03/15 04:47:46;;;;;;;6.30;3.33;;;;;;;14.24;72.93;100638.28;5044419;28;20037;-68
2021/03/15 04:50:16;;;;;;;11.00;3.17;;;;;;;14.14;73.18;100636.53;5050516;28;20052;-68
2021/03/15 04:52:45;;;;;;;7.70;4.03;;;;;;;14.09;73.20;100634.78;5049897;28;20037;-67
2021/03/15 04:55:14;;;;;;;6.35;2.85;;;;;;;14.07;73.18;100636.53;5049715;28;20048;-67
2021/03/15 04:57:43;;;;;;;7.28;3.22;;;;;;;14.04;73.26;100642.75;5050599;28;20616;-67
2021/03/15 05:00:14;;;;;;;7.10;2.67;;;;;;;14.00;73.22;100637.44;5049688;28;20048;-68
2021/03/15 05:02:45;;;;;;;11.25;3.97;;;;;;;14.00;73.45;100630.34;5053479;28;20033;-67
2021/03/15 05:05:15;;;;;;;8.50;2.83;;;;;;;13.98;73.60;100633.00;5052940;28;20037;-68
2021/03/15 05:07:43;;;;;;;7.22;2.80;;;;;;;14.01;73.49;100634.78;5053926;28;20033;-68
2021/03/15 05:10:12;;;;;;;11.43;3.00;;;;;;;14.01;73.50;100640.09;5053508;28;20057;-67
2021/03/15 05:12:40;;;;;;;10.88;3.10;;;;;;;14.02;73.57;100625.94;5053219;28;20472;-67
2021/03/15 05:15:09;;;;;;;7.43;3.08;;;;;;;14.18;73.71;100637.41;5053508;28;20136;-67
2021/03/15 05:17:37;;;;;;;6.35;2.22;;;;;;;14.49;73.62;100633.88;5052575;28;20033;-68
2021/03/15 05:20:08;;;;;;;7.90;2.80;;;;;;;14.73;73.49;100631.13;5051937;28;20061;-68
2021/03/15 05:22:37;;;;;;;9.05;2.67;;;;;;;15.01;73.17;100631.91;5053851;28;20045;-68
2021/03/15 05:25:07;;;;;;;11.48;2.83;;;;;;;15.28;72.25;100635.31;5053016;28;20086;-68
2021/03/15 05:27:35;;;;;;;8.10;2.78;;;;;;;15.50;71.76;100627.19;5053677;28;20041;-68
2021/03/15 05:30:05;;;;;;;5.03;1.90;;;;;;;15.69;71.13;100630.63;5052759;28;20489;-68
2021/03/15 05:32:35;;;;;;;7.50;2.58;;;;;;;15.89;70.45;100639.34;5052800;28;20045;-68
2021/03/15 05:35:05;;;;;;;7.88;2.03;;;;;;;16.14;70.11;100634.72;5052674;28;20037;-69
2021/03/15 05:37:33;;;;;;;5.82;2.03;;;;;;;16.42;69.41;100637.97;5053083;28;20132;-69
2021/03/15 05:40:00;;;;;;;7.53;2.38;;;;;;;16.69;68.24;100634.16;5052992;28;20043;-69
2021/03/15 05:42:47;;;;;;;7.75;2.13;;;;;;;17.00;66.94;100638.19;5053384;28;20141;-68
2021/03/15 05:45:35;;;;;;;6.63;1.92;;;;;;;17.24;65.87;100637.03;5047090;28;20037;-69
2021/03/15 05:48:39;;;;;;;5.75;1.70;;;;;;;17.53;65.30;100639.25;5048149;28;20060;-69
2021/03/15 05:51:32;;;;;;;4.72;2.10;;;;;;;17.72;64.28;100635.44;5041019;28;20048;-70
2021/03/15 05:54:20;;;;;;;6.85;2.33;;;;;;;17.88;63.32;100633.41;5052495;28;20060;-69
2021/03/15 05:57:03;;;;;;;5.30;1.73;;;;;;;17.99;62.32;100642.13;5051089;28;20041;-69
2021/03/15 05:59:50;;;;;;;6.38;2.40;;;;;;;17.83;62.25;100632.59;5052899;28;20041;-69
2021/03/15 06:03:00;;;;;;;6.28;1.90;;;;;;;17.78;62.65;100630.03;5035066;28;20128;-68
2021/03/15 06:05:28;;;;;;;4.80;1.75;;;;;;;17.73;63.01;100625.63;5022273;28;20551;-69
2021/03/15 06:08:08;;;;;;;7.80;2.15;;;;;;;17.77;62.77;100630.91;5050381;28;20043;-70
2021/03/15 06:10:48;;;;;;;8.48;2.63;;;;;;;17.81;62.63;100632.63;5052757;28;20101;-68
2021/03/15 06:13:16;;;;;;;10.35;2.55;;;;;;;17.85;62.38;100633.47;5044719;28;20094;-68
2021/03/15 06:15:44;;;;;;;9.52;2.45;;;;;;;17.95;61.74;100619.03;5052561;28;20084;-68
2021/03/15 06:18:14;;;;;;;6.15;2.10;;;;;;;18.09;60.79;100625.03;5052289;28;20041;-68
2021/03/15 06:20:43;;;;;;;6.50;2.00;;;;;;;18.24;59.91;100627.44;5052070;28;20037;-68
2021/03/15 06:23:15;;;;;;;4.47;2.03;;;;;;;18.42;60.00;100622.66;5052010;28;20459;-67
2021/03/15 06:25:45;;;;;;;5.97;2.28;;;;;;;18.45;59.53;100622.59;5052013;28;20144;-67
2021/03/15 06:28:12;;;;;;;7.82;2.55;;;;;;;18.53;59.24;100623.34;5051981;28;20387;-68
2021/03/15 06:30:39;;;;;;;6.63;2.05;;;;;;;18.75;58.85;100623.84;5050249;28;20521;-68
2021/03/15 06:33:06;;;;;;;6.90;2.35;;;;;;;18.91;58.46;100625.28;5047556;28;20047;-67
2021/03/15 06:35:36;;;;;;;9.07;2.72;;;;;;;18.93;57.65;100620.78;5042674;28;20048;-68
2021/03/15 06:38:04;;;;;;;7.30;3.10;;;;;;;18.84;57.63;100629.88;5050514;28;20497;-67
2021/03/15 06:40:34;;;;;;;10.40;3.05;;;;;;;18.78;57.55;100619.28;5050461;28;20408;-67
2021/03/15 06:43:04;;;;;;;6.88;2.88;;;;;;;18.69;57.82;100633.75;5050875;28;20135;-69
2021/03/15 06:45:32;;;;;;;5.40;2.33;;;;;;;18.81;57.57;100627.28;5049672;28;21025;-69
2021/03/15 06:48:03;;;;;;;6.72;2.53;;;;;;;19.19;57.39;100620.22;5050206;28;20049;-69
2021/03/15 06:50:30;;;;;;;5.50;2.25;;;;;;;19.43;55.79;100630.38;5051534;28;20486;-69
2021/03/15 06:53:00;;;;;;;6.55;2.45;;;;;;;19.56;55.72;100615.81;5051382;28;20116;-69
2021/03/15 06:55:31;;;;;;;6.35;2.70;;;;;;;19.53;55.03;100623.94;5052088;28;20497;-70
2021/03/15 06:57:59;;;;;;;3.60;1.95;;;;;;;19.55;55.04;100627.47;5051232;28;20052;-69
2021/03/15 07:00:28;;;;;;;7.35;2.90;;;;;;;19.51;55.26;100615.06;5051646;28;20040;-69
2021/03/15 07:03:00;;;;;;;5.00;2.70;;;;;;;19.72;54.84;100619.91;5050674;28;20051;-69
2021/03/15 07:05:29;;;;;;;9.93;2.55;;;;;;;19.92;54.66;100621.22;5050047;28;20393;-69
2021/03/15 07:07:57;;;;;;;8.35;3.70;;;;;;;19.91;54.03;100614.97;5047925;28;20506;-69
2021/03/15 07:10:26;;;;;;;6.03;2.33;;;;;;;19.86;53.92;100607.06;5050658;28;20036;-69
2021/03/15 07:13:10;;;;;;;7.93;2.53;;;;;;;19.83;54.38;100616.94;5047677;28;20102;-69
2021/03/15 07:15:37;;;;;;;5.75;2.65;;;;;;;19.90;54.49;100613.19;5049249;28;20041;-69
2021/03/15 07:18:12;;;;;;;10.27;2.97;;;;;;;20.01;54.45;100608.47;5048240;28;20045;-69
2021/03/15 07:20:44;;;;;;;4.05;1.60;;;;;;;20.03;54.13;100605.72;5051210;28;20040;-69
2021/03/15 07:23:12;;;;;;;3.88;1.75;;;;;;;20.02;54.03;100610.22;5049759;28;20033;-69
2021/03/15 07:25:39;;;;;;;6.07;2.70;;;;;;;20.24;54.26;100602.50;5051502;28;20049;-69
2021/03/15 07:28:06;;;;;;;7.28;2.90;;;;;;;20.33;53.53;100601.41;5050823;28;20055;-69
2021/03/15 07:30:37;;;;;;;9.43;2.20;;;;;;;20.27;53.75;100595.28;5050940;28;20037;-69
2021/03/15 07:33:06;;;;;;;5.93;2.40;;;;;;;20.49;53.92;100598.25;5050609;28;20490;-69
2021/03/15 07:35:36;;;;;;;9.13;3.05;;;;;;;20.63;53.17;100593.41;5051124;28;20502;-69
2021/03/15 07:38:03;;;;;;;6.95;1.95;;;;;;;20.75;53.16;100589.47;5051303;28;20124;-71
2021/03/15 07:40:36;;;;;;;6.10;1.85;;;;;;;20.89;52.81;100581.03;5049321;28;20041;-69
2021/03/15 07:43:05;;;;;;;8.88;2.70;;;;;;;21.03;53.04;100579.69;5050410;28;20080;-69
2021/03/15 07:45:36;;;;;;;6.10;2.38;;;;;;;21.34;52.55;100552.78;5049903;28;20132;-69
2021/03/15 07:48:11;;;;;;;8.98;2.60;;;;;;;21.24;52.02;100572.81;5050790;28;20497;-69
2021/03/15 07:50:39;;;;;;;8.93;3.35;;;;;;;21.07;51.57;100575.97;5050919;28;20095;-69
2021/03/15 07:53:07;;;;;;;8.50;3.30;;;;;;;21.00;51.64;100569.03;5051205;28;20152;-69
2021/03/15 07:55:36;;;;;;;8.35;2.72;;;;;;;20.98;52.13;100573.59;5050557;28;20140;-69
2021/03/15 07:58:24;;;;;;;6.30;2.00;;;;;;;21.12;51.96;100569.59;5050385;28;20120;-69
2021/03/15 08:00:53;;;;;;;6.95;2.25;;;;;;;21.09;52.15;100565.19;5050404;28;20033;-69
2021/03/15 08:03:22;;;;;;;7.97;2.35;;;;;;;21.00;51.66;100568.19;5051012;28;20078;-70
2021/03/15 08:05:50;;;;;;;6.63;2.33;;;;;;;21.08;52.11;100571.50;5050519;28;20063;-69
2021/03/15 08:08:17;;;;;;;5.68;2.10;;;;;;;21.23;51.95;100564.81;5049943;28;20068;-69
2021/03/15 08:10:44;;;;;;;6.28;2.45;;;;;;;21.53;51.79;100562.97;5050132;28;20413;-69
2021/03/15 08:13:12;;;;;;;5.75;2.10;;;;;;;21.69;51.60;100551.66;5049065;28;20041;-70
2021/03/15 08:15:40;;;;;;;8.85;2.13;;;;;;;21.93;51.76;100544.53;5050682;28;20045;-70
2021/03/15 08:18:11;;;;;;;10.18;2.20;;;;;;;22.10;51.67;100544.91;5048967;28;20086;-70
2021/03/15 08:20:43;;;;;;;10.98;2.55;;;;;;;22.36;51.75;100543.97;5049711;28;20033;-70
2021/03/15 08:23:12;;;;;;;5.88;2.15;;;;;;;22.57;50.94;100539.59;5050781;28;20061;-70
2021/03/15 08:25:43;;;;;;;9.57;2.50;;;;;;;22.63;50.47;100548.34;5050665;28;20135;-70
2021/03/15 08:28:12;;;;;;;5.45;1.80;;;;;;;22.74;50.36;100547.94;5050318;28;20040;-69
2021/03/15 08:31:03;;;;;;;8.65;2.45;;;;;;;22.91;49.91;100540.09;5050442;28;20041;-70
2021/03/15 08:33:32;;;;;;;6.63;2.17;;;;;;;22.85;50.30;100534.94;5049107;28;20125;-70
2021/03/15 08:36:00;;;;;;;6.13;2.35;;;;;;;23.02;50.61;100540.56;5051370;28;20513;-70
2021/03/15 08:38:32;;;;;;;7.57;2.25;;;;;;;23.19;49.87;100550.66;5053969;28;20121;-70
2021/03/15 08:41:04;;;;;;;8.65;2.35;;;;;;;23.44;49.49;100555.94;5053699;28;20510;-70
2021/03/15 08:43:49;;;;;;;6.65;1.88;;;;;;;23.55;47.60;100545.66;5053858;28;20087;-70
2021/03/15 08:46:20;;;;;;;7.45;2.10;;;;;;;23.70;47.22;100531.50;5054123;28;20441;-70
2021/03/15 08:49:02;;;;;;;8.98;2.75;;;;;;;23.74;46.13;100543.94;5038109;28;20045;-70
2021/03/15 08:51:55;;;;;;;10.65;5.53;;;;;;;23.60;46.32;100530.16;5034435;28;20049;-70
2021/03/15 08:54:45;;;;;;;7.32;3.15;;;;;;;22.92;47.23;100539.16;5024474;28;20064;-70
2021/03/15 08:57:33;;;;;;;8.05;2.30;;;;;;;22.39;48.53;100532.19;5036111;28;20029;-70
2021/03/15 09:00:00;;;;;;;9.52;4.00;;;;;;;22.22;48.86;100517.56;5040910;28;20037;-70
2021/03/15 09:02:35;;;;;;;7.22;2.22;;;;;;;22.31;48.42;100526.22;5053538;28;20045;-70
2021/03/15 09:05:23;;;;;;;12.85;2.60;;;;;;;22.55;48.16;100530.69;5053449;28;20043;-69
2021/03/15 09:07:51;;;;;;;4.97;2.10;;;;;;;23.00;47.64;100537.06;5041668;28;20497;-70
2021/03/15 09:10:42;;;;;;;6.10;2.25;;;;;;;23.41;45.84;100526.44;5052428;28;20563;-70
2021/03/15 09:13:27;;;;;;;5.32;2.03;;;;;;;23.28;45.79;100520.69;5053257;28;20041;-70
2021/03/15 09:16:03;;;;;;;4.20;1.95;;;;;;;22.88;45.92;100494.47;5053223;28;20048;-70
2021/03/15 09:19:01;;;;;;;19.70;11.63;;;;;;;22.56;46.83;100516.31;5052596;28;20501;-69
2021/03/15 09:21:55;;;;;;;7.97;2.55;;;;;;;22.02;48.07;100509.31;5052971;28;20057;-70
2021/03/15 09:24:50;;;;;;;6.00;1.77;;;;;;;21.58;49.59;100512.66;5047050;28;20033;-70
2021/03/15 09:27:39;;;;;;;8.18;2.92;;;;;;;21.21;50.69;100497.72;5029076;28;20041;-66
2021/03/15 09:30:19;;;;;;;6.95;2.35;;;;;;;21.05;51.65;100512.53;5030181;28;20034;-67
2021/03/15 09:32:47;;;;;;;6.63;2.78;;;;;;;20.85;52.40;100499.75;5042622;28;20070;-67
2021/03/15 09:35:22;;;;;;;11.75;3.80;;;;;;;20.72;52.85;100500.16;5053491;28;20037;-66
2021/03/15 09:37:53;;;;;;;6.72;2.30;;;;;;;20.64;53.47;100492.34;5051937;28;20048;-66
2021/03/15 09:40:23;;;;;;;8.93;2.47;;;;;;;20.61;53.83;100471.84;5051389;28;20055;-66
2021/03/15 09:42:50;;;;;;;6.90;2.60;;;;;;;20.93;53.71;100491.47;5049659;28;20063;-66
2021/03/15 09:45:32;;;;;;;8.32;2.83;;;;;;;21.17;53.01;100476.41;5051256;28;20036;-66
2021/03/15 09:48:00;;;;;;;7.55;2.78;;;;;;;21.38;53.04;100473.91;5050892;28;20049;-67
2021/03/15 09:50:28;;;;;;;6.43;2.13;;;;;;;21.75;52.51;100473.50;5051354;28;20403;-67
2021/03/15 09:53:08;;;;;;;8.70;2.17;;;;;;;21.73;51.88;100450.28;5051384;28;20072;-66
2021/03/15 09:55:35;;;;;;;17.50;3.40;;;;;;;21.65;51.42;100438.97;5051073;28;20044;-66
2021/03/15 09:58:06;;;;;;;6.43;2.50;;;;;;;21.63;51.47;100444.38;5050848;28;20055;-66
2021/03/15 10:00:34;;;;;;;5.22;1.75;;;;;;;21.29;51.58;100450.03;5049661;28;20476;-66
2021/03/15 10:03:01;;;;;;;10.30;2.58;;;;;;;21.08;52.04;100451.56;5042337;28;20030;-66
2021/03/15 10:05:29;;;;;;;5.63;1.65;;;;;;;20.92;52.03;100444.06;5051320;28;20103;-66
2021/03/15 10:07:56;;;;;;;7.25;2.17;;;;;;;20.88;52.00;100445.06;5050779;28;20041;-66
2021/03/15 10:10:25;;;;;;;7.72;2.63;;;;;;;21.04;51.76;100449.03;5051479;28;20039;-66
2021/03/15 10:13:01;;;;;;;8.00;2.53;;;;;;;21.15;51.36;100438.81;5050492;28;20117;-66
2021/03/15 10:15:28;;;;;;;9.52;2.35;;;;;;;21.19;51.39;100445.91;5051012;28;20568;-65
2021/03/15 10:17:55;;;;;;;6.45;1.63;;;;;;;21.14;51.55;100442.44;5050711;28;20128;-65
2021/03/15 10:20:26;;;;;;;5.03;1.67;;;;;;;21.09;51.77;100433.66;5050643;28;20037;-66
2021/03/15 10:22:53;;;;;;;4.15;1.48;;;;;;;21.15;51.68;100425.41;5050512;28;20040;-66
2021/03/15 10:25:21;;;;;;;4.28;1.48;;;;;;;20.95;52.09;100420.69;5051229;28;20036;-66
2021/03/15 10:27:57;;;;;;;4.05;1.35;;;;;;;20.80;52.17;100412.25;5050664;28;20099;-66
2021/03/15 10:30:29;;;;;;;6.50;1.73;;;;;;;20.99;52.30;100398.19;5051022;28;20037;-66
2021/03/15 10:32:57;;;;;;;4.35;1.63;;;;;;;21.17;51.46;100402.09;5050370;28;20140;-67
2021/03/15 10:35:26;;;;;;;5.47;1.50;;;;;;;21.52;51.20;100390.16;5050437;28;20496;-67
2021/03/15 10:37:57;;;;;;;4.65;1.42;;;;;;;21.84;49.87;100376.44;5049802;28;20041;-67
2021/03/15 10:40:25;;;;;;;4.03;1.30;;;;;;;22.06;49.48;100370.28;5049948;28;20112;-66
2021/03/15 10:42:53;;;;;;;4.78;1.38;;;;;;;22.25;49.24;100365.97;5049384;28;20152;-67
2021/03/15 10:45:23;;;;;;;7.38;1.73;;;;;;;22.31;48.82;100354.97;5051017;28;20087;-66
2021/03/15 10:47:50;;;;;;;6.72;1.83;;;;;;;22.22;48.59;100350.81;5050130;28;20418;-66
2021/03/15 10:50:28;;;;;;;7.97;1.80;;;;;;;22.35;48.48;100334.19;5049835;28;20485;-66
2021/03/15 10:52:57;;;;;;;10.90;3.00;;;;;;;22.42;47.96;100343.78;5049498;28;20469;-66
2021/03/15 10:55:32;;;;;;;8.32;2.72;;;;;;;22.43;47.31;100358.97;5050612;28;20033;-66
2021/03/15 10:58:00;;;;;;;7.63;2.30;;;;;;;22.32;47.65;100347.78;5049454;28;20095;-66
2021/03/15 11:00:30;;;;;;;10.48;2.33;;;;;;;22.51;46.87;100348.81;5050046;28;20033;-66
2021/03/15 11:02:57;;;;;;;9.05;1.77;;;;;;;22.66;46.46;100340.97;5049513;28;20037;-66
2021/03/15 11:05:24;;;;;;;5.75;2.28;;;;;;;22.93;45.73;100348.88;5050141;28;20102;-66
2021/03/15 11:07:52;;;;;;;8.20;2.20;;;;;;;22.94;44.99;100342.56;5049816;28;20115;-66
2021/03/15 11:10:21;;;;;;;9.85;2.33;;;;;;;22.81;44.91;100336.81;5050443;28;20040;-66
2021/03/15 11:12:52;;;;;;;9.98;2.33;;;;;;;22.76;45.55;100336.13;5049399;28;20558;-66
2021/03/15 11:15:22;;;;;;;7.75;2.28;;;;;;;22.63;46.18;100334.84;5050578;28;20174;-66
2021/03/15 11:18:19;;;;;;;9.02;2.10;;;;;;;22.34;46.90;100322.56;5050103;28;20404;-66
2021/03/15 11:20:49;;;;;;;10.95;2.47;;;;;;;22.33;47.74;100330.69;5032363;28;20052;-66
2021/03/15 11:23:32;;;;;;;5.90;1.60;;;;;;;22.41;47.85;100317.81;5049894;28;20059;-66
2021/03/15 11:26:04;;;;;;;9.10;2.90;;;;;;;22.47;47.89;100307.69;5049733;28;20525;-66
2021/03/15 11:28:33;;;;;;;12.40;3.03;;;;;;;22.47;47.69;100299.59;5049696;28;20050;-66
2021/03/15 11:31:00;;;;;;;10.23;1.92;;;;;;;22.35;48.04;100286.66;5049885;28;20049;-67
2021/03/15 11:33:29;;;;;;;10.85;2.63;;;;;;;22.29;48.04;100294.09;5050037;28;20035;-66
2021/03/15 11:36:00;;;;;;;8.10;2.50;;;;;;;22.29;48.14;100292.28;5047476;28;20665;-66
2021/03/15 11:38:28;;;;;;;11.90;3.38;;;;;;;22.38;48.13;100288.34;5049670;28;20090;-65
2021/03/15 11:40:56;;;;;;;8.25;2.00;;;;;;;22.61;47.60;100285.59;5048693;28;20053;-66
2021/03/15 11:43:24;;;;;;;16.30;4.13;;;;;;;22.80;47.16;100292.00;5049969;28;20029;-65
2021/03/15 11:45:51;;;;;;;9.40;2.88;;;;;;;22.85;46.85;100286.41;5049349;28;20045;-66